Time;durP1;ratioP1;P1;durP2;ratioP2;P2;SDS_P1;SDS_P2;PMS_P1;PMS_P2;Temp;Humidity;BMP_temperature;BMP_pressure;BME280_temperature;BME280_humidity;BME280_pressure;Samples;Min_cycle;Max_cycle;Signal;HPM_P1;HPM_P2
2023/04/23 00:01:48;;;;;;;1.27;1.00;;;;;;;14.13;100.00;95662.97;5036945;28;20213;-69
2023/04/23 00:04:17;;;;;;;1.13;1.02;;;;;;;14.11;100.00;95657.06;5036516;28;20302;-69
2023/04/23 00:06:46;;;;;;;1.90;0.88;;;;;;;14.12;100.00;95664.00;5036274;28;20208;-69
2023/04/23 00:09:15;;;;;;;1.83;1.13;;;;;;;14.10;100.00;95660.72;5035653;28;20836;-69
2023/04/23 00:11:42;;;;;;;1.88;1.13;;;;;;;14.00;100.00;95655.03;5036206;28;20589;-69
2023/04/23 00:14:09;;;;;;;1.10;0.82;;;;;;;13.97;100.00;95658.13;5035812;28;20221;-69
2023/04/23 00:16:36;;;;;;;0.60;0.60;;;;;;;13.96;100.00;95653.03;5036289;28;20217;-69
2023/04/23 00:19:02;;;;;;;1.20;0.93;;;;;;;13.80;100.00;95657.00;5035691;28;20225;-69
2023/04/23 00:21:30;;;;;;;1.50;0.88;;;;;;;13.72;100.00;95662.53;5036015;28;20201;-69
2023/04/23 00:23:58;;;;;;;2.10;1.33;;;;;;;13.82;100.00;95656.78;5036134;28;20235;-69
2023/04/23 00:26:24;;;;;;;2.47;1.65;;;;;;;13.88;100.00;95656.75;5036136;28;20228;-69
2023/04/23 00:28:51;;;;;;;1.08;0.88;;;;;;;13.82;100.00;95656.78;5035528;28;20540;-69
2023/04/23 00:31:18;;;;;;;1.90;1.05;;;;;;;13.79;100.00;95652.72;5035903;28;21044;-70
2023/04/23 00:33:44;;;;;;;1.98;0.73;;;;;;;13.70;100.00;95661.13;5036350;28;21133;-69
2023/04/23 00:36:10;;;;;;;1.30;0.95;;;;;;;13.54;100.00;95656.25;5036215;28;20209;-69
2023/04/23 00:38:37;;;;;;;1.65;0.82;;;;;;;13.57;100.00;95659.31;5035250;28;20221;-69
2023/04/23 00:41:05;;;;;;;3.20;0.80;;;;;;;13.68;100.00;95671.91;5036069;28;20211;-69
2023/04/23 00:43:32;;;;;;;1.05;0.82;;;;;;;13.59;100.00;95662.59;5036303;28;20217;-69
2023/04/23 00:46:00;;;;;;;2.03;1.65;;;;;;;13.67;100.00;95670.28;5036179;28;20201;-69
2023/04/23 00:48:27;;;;;;;0.90;0.85;;;;;;;13.67;100.00;95670.28;5035333;28;20201;-69
2023/04/23 00:50:58;;;;;;;1.25;1.02;;;;;;;13.71;100.00;95666.19;5035579;28;20208;-69
2023/04/23 00:53:25;;;;;;;2.25;1.10;;;;;;;13.68;100.00;95666.63;5035429;28;20228;-69
2023/04/23 00:55:51;;;;;;;2.03;1.65;;;;;;;13.71;100.00;95665.38;5036008;28;20213;-69
2023/04/23 00:58:19;;;;;;;1.55;1.45;;;;;;;13.79;100.00;95663.31;5035537;28;20712;-69
2023/04/23 01:00:47;;;;;;;1.10;1.00;;;;;;;13.80;100.00;95659.63;5035660;28;20266;-69
2023/04/23 01:03:15;;;;;;;0.90;0.90;;;;;;;13.81;100.00;95655.97;5035591;28;20229;-69
2023/04/23 01:05:42;;;;;;;1.15;1.05;;;;;;;13.80;100.00;95654.34;5035795;28;20204;-69
2023/04/23 01:08:13;;;;;;;1.65;1.55;;;;;;;13.87;100.00;95655.09;5035104;28;20205;-69
2023/04/23 01:10:40;;;;;;;2.38;1.30;;;;;;;13.77;100.00;95653.94;5035250;28;21107;-69
2023/04/23 01:13:07;;;;;;;1.40;0.65;;;;;;;13.69;100.00;95662.94;5036265;28;20225;-69
2023/04/23 01:15:35;;;;;;;1.33;1.17;;;;;;;13.74;100.00;95662.31;5036954;28;20204;-69
2023/04/23 01:18:03;;;;;;;1.23;1.13;;;;;;;13.68;100.00;95666.63;5038110;28;20201;-69
2023/04/23 01:20:30;;;;;;;1.38;0.77;;;;;;;13.67;100.00;95666.81;5038810;28;20205;-69
2023/04/23 01:22:57;;;;;;;1.50;1.08;;;;;;;13.72;100.00;95669.66;5040098;28;20225;-69
2023/04/23 01:25:24;;;;;;;4.43;0.80;;;;;;;13.60;100.00;95672.13;5039168;28;20201;-69
2023/04/23 01:27:50;;;;;;;0.50;0.50;;;;;;;13.52;100.00;95671.56;5037911;28;20863;-69
2023/04/23 01:30:17;;;;;;;1.17;0.90;;;;;;;13.50;100.00;95668.28;5039270;28;20224;-69
2023/04/23 01:32:44;;;;;;;2.45;0.73;;;;;;;13.58;100.00;95674.19;5038658;28;20201;-69
2023/04/23 01:35:11;;;;;;;1.55;0.88;;;;;;;13.64;100.00;95681.28;5038718;28;20215;-69
2023/04/23 01:37:39;;;;;;;1.45;1.35;;;;;;;13.66;100.00;95686.38;5038395;28;20205;-69
2023/04/23 01:40:09;;;;;;;2.70;1.38;;;;;;;13.73;100.00;95685.31;5038398;28;20228;-69
2023/04/23 01:42:35;;;;;;;1.50;1.20;;;;;;;13.65;100.00;95682.09;5038988;28;20224;-69
2023/04/23 01:45:03;;;;;;;1.23;1.13;;;;;;;13.73;100.00;95680.03;5038963;28;20212;-69
2023/04/23 01:47:29;;;;;;;0.68;0.68;;;;;;;13.67;100.00;95686.16;5037972;28;20212;-69
2023/04/23 01:49:56;;;;;;;1.38;0.88;;;;;;;13.67;100.00;95691.47;5038690;28;20212;-69
2023/04/23 01:52:22;;;;;;;1.27;1.17;;;;;;;13.68;100.00;95690.44;5038638;28;20205;-69
2023/04/23 01:54:49;;;;;;;3.17;1.35;;;;;;;13.58;100.00;95698.00;5038998;28;20220;-69
2023/04/23 01:57:22;;;;;;;1.27;1.15;;;;;;;13.78;100.00;95688.16;5037665;28;20584;-69
2023/04/23 01:59:49;;;;;;;1.42;1.33;;;;;;;13.72;100.00;95690.81;5037936;28;20225;-69
2023/04/23 02:02:15;;;;;;;2.88;1.95;;;;;;;13.71;100.00;95695.31;5038352;28;20213;-69
2023/04/23 02:04:44;;;;;;;2.08;1.27;;;;;;;13.70;100.00;95698.97;5037971;28;20709;-69
2023/04/23 02:07:11;;;;;;;0.68;0.60;;;;;;;13.74;100.00;95699.38;5038574;28;20209;-69
2023/04/23 02:09:38;;;;;;;1.35;1.00;;;;;;;13.73;100.00;95701.19;5038185;28;20212;-69
2023/04/23 02:12:05;;;;;;;1.20;1.02;;;;;;;13.69;100.00;95689.41;5037470;28;20209;-69
2023/04/23 02:14:33;;;;;;;2.08;1.08;;;;;;;13.74;100.00;95697.53;5038430;28;20812;-69
2023/04/23 02:16:59;;;;;;;2.70;0.95;;;;;;;13.64;100.00;95702.44;5038165;28;20209;-69
2023/04/23 02:19:26;;;;;;;2.05;0.70;;;;;;;13.62;100.00;95701.88;5037163;28;20217;-69
2023/04/23 02:21:53;;;;;;;1.73;1.08;;;;;;;13.64;100.00;95699.81;5038305;28;20244;-69
2023/04/23 02:24:19;;;;;;;0.75;0.70;;;;;;;13.62;100.00;95699.22;5038114;28;20236;-69
2023/04/23 02:26:46;;;;;;;1.20;0.98;;;;;;;13.65;100.00;95698.00;5037691;28;21021;-69
2023/04/23 02:29:12;;;;;;;1.40;1.17;;;;;;;13.64;100.00;95702.44;5037160;28;20724;-69
2023/04/23 02:31:40;;;;;;;0.68;0.68;;;;;;;13.77;100.00;95701.59;5037425;28;20197;-69
2023/04/23 02:34:07;;;;;;;1.35;1.05;;;;;;;13.66;100.00;95699.63;5037255;28;20224;-69
2023/04/23 02:36:33;;;;;;;1.38;1.27;;;;;;;13.66;100.00;95713.66;5038492;28;20260;-69
2023/04/23 02:39:00;;;;;;;1.02;0.93;;;;;;;13.67;100.00;95712.66;5037536;28;20232;-69
2023/04/23 02:41:26;;;;;;;1.90;1.70;;;;;;;13.71;100.00;95707.72;5037129;28;20224;-69
2023/04/23 02:43:52;;;;;;;1.67;0.70;;;;;;;13.71;100.00;95711.22;5037346;28;20243;-69
2023/04/23 02:46:19;;;;;;;1.48;1.17;;;;;;;13.68;100.00;95714.28;5038118;28;20209;-69
2023/04/23 02:48:47;;;;;;;1.48;1.02;;;;;;;13.72;100.00;95717.31;5036693;28;20204;-69
2023/04/23 02:51:14;;;;;;;2.13;1.10;;;;;;;13.58;100.00;95729.78;5036885;28;20221;-69
2023/04/23 02:53:41;;;;;;;0.60;0.60;;;;;;;13.55;100.00;95732.03;5035259;28;20322;-69
2023/04/23 02:56:07;;;;;;;1.25;1.15;;;;;;;13.59;100.00;95726.13;5037498;28;20213;-69
2023/04/23 02:58:34;;;;;;;1.48;1.25;;;;;;;13.43;100.00;95731.84;5036866;28;20216;-69
2023/04/23 03:01:01;;;;;;;1.42;1.17;;;;;;;13.43;100.00;95741.63;5037409;28;20224;-69
2023/04/23 03:03:30;;;;;;;1.05;0.70;;;;;;;13.45;100.00;95735.09;5037335;28;20252;-70
2023/04/23 03:05:58;;;;;;;1.38;1.05;;;;;;;13.55;100.00;95729.38;5037026;28;20255;-70
2023/04/23 03:08:25;;;;;;;0.50;0.50;;;;;;;13.33;100.00;95735.09;5037040;28;20216;-70
2023/04/23 03:10:51;;;;;;;2.67;1.13;;;;;;;13.28;100.00;95734.94;5036909;28;20205;-70
2023/04/23 03:13:18;;;;;;;1.05;0.93;;;;;;;13.33;100.00;95735.09;5036698;28;20744;-70
2023/04/23 03:15:44;;;;;;;1.45;0.85;;;;;;;13.33;100.00;95733.28;5037411;28;20599;-70
2023/04/23 03:18:11;;;;;;;1.27;1.02;;;;;;;13.32;100.00;95725.56;5036675;28;20216;-70
2023/04/23 03:20:37;;;;;;;1.58;1.00;;;;;;;13.28;100.00;95732.28;5036731;28;20236;-70
2023/04/23 03:23:06;;;;;;;1.52;1.17;;;;;;;13.34;100.00;95728.78;5036594;28;20225;-70
2023/04/23 03:25:32;;;;;;;1.45;1.02;;;;;;;13.34;100.00;95731.44;5037065;28;20235;-70
2023/04/23 03:27:59;;;;;;;1.15;0.88;;;;;;;13.20;100.00;95730.66;5036378;28;20253;-68
2023/04/23 03:30:26;;;;;;;2.33;1.52;;;;;;;13.22;100.00;95727.81;5036811;28;20212;-69
2023/04/23 03:32:54;;;;;;;0.73;0.60;;;;;;;13.22;100.00;95733.09;5036855;28;20197;-68
2023/04/23 03:35:21;;;;;;;0.98;0.70;;;;;;;13.18;100.00;95735.31;5036846;28;20223;-68
2023/04/23 03:37:47;;;;;;;1.73;1.35;;;;;;;13.11;100.00;95731.06;5035369;28;20217;-69
2023/04/23 03:40:15;;;;;;;1.08;0.73;;;;;;;13.15;100.00;95729.63;5037106;28;20590;-69
2023/04/23 03:42:41;;;;;;;3.75;1.38;;;;;;;13.00;100.00;95742.25;5036226;28;20205;-68
2023/04/23 03:45:10;;;;;;;0.98;0.93;;;;;;;12.99;100.00;95733.50;5036281;28;20221;-68
2023/04/23 03:47:36;;;;;;;0.60;0.60;;;;;;;13.06;100.00;95734.31;5036716;28;20201;-68
2023/04/23 03:50:03;;;;;;;2.15;1.65;;;;;;;13.07;100.00;95740.41;5037755;28;20209;-68
2023/04/23 03:52:30;;;;;;;0.77;0.77;;;;;;;12.79;100.00;95747.69;5036237;28;20267;-69
2023/04/23 03:54:56;;;;;;;1.05;0.82;;;;;;;12.97;100.00;95740.84;5036363;28;20224;-68
2023/04/23 03:57:24;;;;;;;1.52;0.73;;;;;;;12.73;100.00;95742.41;5036495;28;20757;-69
2023/04/23 03:59:51;;;;;;;1.23;1.03;;;;;;;12.79;100.00;95752.97;5035749;28;20227;-68
2023/04/23 04:02:17;;;;;;;1.95;1.38;;;;;;;12.86;100.00;95753.84;5035964;28;20219;-68
2023/04/23 04:04:44;;;;;;;0.43;0.43;;;;;;;12.75;100.00;95754.41;5036970;28;20238;-68
2023/04/23 04:07:11;;;;;;;0.63;0.63;;;;;;;12.49;100.00;95745.63;5036226;28;20311;-68
2023/04/23 04:09:38;;;;;;;0.80;0.80;;;;;;;12.55;100.00;95755.38;5035835;28;20225;-68
2023/04/23 04:12:06;;;;;;;2.93;1.13;;;;;;;12.48;100.00;95755.38;5036642;28;20228;-69
2023/04/23 04:14:33;;;;;;;1.63;1.10;;;;;;;12.52;100.00;95751.31;5036282;28;20228;-70
2023/04/23 04:17:00;;;;;;;1.00;0.67;;;;;;;12.58;100.00;95755.81;5036540;28;20216;-70
2023/04/23 04:19:27;;;;;;;1.07;0.97;;;;;;;12.66;100.00;95746.88;5036394;28;20224;-69
2023/04/23 04:21:53;;;;;;;1.17;1.05;;;;;;;12.59;100.00;95752.16;5036548;28;20197;-69
2023/04/23 04:24:21;;;;;;;0.43;0.43;;;;;;;12.63;100.00;95756.03;5035986;28;20236;-70
2023/04/23 04:26:48;;;;;;;0.93;0.82;;;;;;;12.71;100.00;95753.19;5036491;28;20605;-69
2023/04/23 04:29:15;;;;;;;1.10;1.10;;;;;;;12.71;100.00;95747.91;5036126;28;20581;-70
2023/04/23 04:31:43;;;;;;;1.67;1.38;;;;;;;12.72;100.00;95741.59;5035906;28;20201;-69
2023/04/23 04:34:09;;;;;;;1.33;0.73;;;;;;;12.61;100.00;95749.31;5036297;28;20221;-70
2023/04/23 04:36:36;;;;;;;3.50;1.27;;;;;;;12.68;100.00;95744.84;5036753;28;20202;-70
2023/04/23 04:39:03;;;;;;;0.77;0.77;;;;;;;12.53;100.00;95752.94;5035397;28;20224;-70
2023/04/23 04:41:29;;;;;;;0.57;0.57;;;;;;;12.51;100.00;95749.72;5035843;28;20202;-70
2023/04/23 04:43:57;;;;;;;0.60;0.60;;;;;;;12.59;100.00;95741.59;5036177;28;20221;-70
2023/04/23 04:46:25;;;;;;;1.33;1.23;;;;;;;12.73;100.00;95742.41;5035676;28;20213;-70
2023/04/23 04:48:52;;;;;;;0.80;0.80;;;;;;;12.77;100.00;95733.88;5035806;28;20239;-68
2023/04/23 04:51:19;;;;;;;0.88;0.88;;;;;;;12.72;100.00;95738.97;5040467;28;20209;-68
2023/04/23 04:53:45;;;;;;;1.60;0.77;;;;;;;12.68;100.00;95735.09;5039395;28;20701;-69
2023/04/23 04:56:12;;;;;;;5.00;0.87;;;;;;;12.70;100.00;95732.25;5039265;28;20322;-68
2023/04/23 04:58:38;;;;;;;0.87;0.87;;;;;;;12.62;100.00;95738.53;5039580;28;20201;-69
2023/04/23 05:01:05;;;;;;;1.33;1.13;;;;;;;12.80;100.00;95738.75;5039679;28;20221;-69
2023/04/23 05:03:32;;;;;;;1.20;1.07;;;;;;;12.81;100.00;95733.25;5039198;28;20225;-68
2023/04/23 05:06:00;;;;;;;1.40;0.87;;;;;;;12.86;100.00;95738.00;5040060;28;20201;-70
2023/04/23 05:08:26;;;;;;;0.50;0.50;;;;;;;12.71;100.00;95734.69;5039440;28;20205;-69
2023/04/23 05:10:53;;;;;;;0.90;0.90;;;;;;;12.73;100.00;95742.41;5038938;28;20205;-68
2023/04/23 05:13:20;;;;;;;0.63;0.52;;;;;;;12.78;100.00;95738.97;5039596;28;20306;-69
2023/04/23 05:15:46;;;;;;;1.40;0.77;;;;;;;12.80;100.00;95736.94;5039718;28;20201;-69
2023/04/23 05:18:13;;;;;;;1.00;0.90;;;;;;;12.68;100.00;95748.31;5038616;28;20209;-69
2023/04/23 05:20:39;;;;;;;2.40;1.10;;;;;;;12.67;100.00;95744.03;5039494;28;20229;-69
2023/04/23 05:23:07;;;;;;;0.70;0.70;;;;;;;12.67;100.00;95738.75;5039380;28;20327;-70
2023/04/23 05:25:34;;;;;;;1.42;1.25;;;;;;;12.70;100.00;95743.63;5039034;28;20201;-69
2023/04/23 05:28:01;;;;;;;3.47;1.07;;;;;;;12.56;100.00;95749.91;5038698;28;20197;-70
2023/04/23 05:30:27;;;;;;;0.90;0.87;;;;;;;12.69;100.00;95742.00;5039450;28;20200;-70
2023/04/23 05:32:54;;;;;;;1.03;0.70;;;;;;;12.76;100.00;95752.59;5039256;28;20616;-69
2023/04/23 05:35:20;;;;;;;0.90;0.87;;;;;;;12.73;100.00;95743.25;5038650;28;20238;-68
2023/04/23 05:37:47;;;;;;;1.55;1.33;;;;;;;12.89;100.00;95745.50;5038455;28;20208;-70
2023/04/23 05:40:15;;;;;;;1.35;1.15;;;;;;;12.96;100.00;95752.44;5038998;28;20232;-68
2023/04/23 05:42:41;;;;;;;1.00;0.98;;;;;;;12.87;100.00;95745.72;5038639;28;20198;-70
2023/04/23 05:45:09;;;;;;;0.50;0.50;;;;;;;12.93;100.00;95752.00;5038348;28;20665;-69
2023/04/23 05:47:35;;;;;;;1.48;1.25;;;;;;;12.89;100.00;95748.97;5038059;28;21028;-70
2023/04/23 05:50:02;;;;;;;17.63;4.28;;;;;;;12.89;100.00;95756.91;5038669;28;20197;-70
2023/04/23 05:52:30;;;;;;;2.63;2.17;;;;;;;12.69;100.00;95752.59;5038256;28;20802;-69
2023/04/23 05:54:56;;;;;;;6.85;3.05;;;;;;;12.67;100.00;95757.25;5039026;28;20257;-69
2023/04/23 05:57:25;;;;;;;0.98;0.82;;;;;;;12.92;100.00;95750.41;5038156;28;20225;-68
2023/04/23 05:59:51;;;;;;;1.70;1.43;;;;;;;12.93;100.00;95742.25;5038301;28;20770;-69
2023/04/23 06:02:18;;;;;;;0.80;0.80;;;;;;;12.93;100.00;95746.72;5037948;28;20209;-69
2023/04/23 06:04:44;;;;;;;4.30;1.70;;;;;;;12.83;100.00;95756.88;5038610;28;20221;-69
2023/04/23 06:07:11;;;;;;;2.53;1.30;;;;;;;12.83;100.00;95756.88;5038208;28;20201;-68
2023/04/23 06:09:37;;;;;;;1.40;1.30;;;;;;;12.84;100.00;95750.56;5038338;28;20669;-69
2023/04/23 06:12:04;;;;;;;1.85;0.95;;;;;;;12.95;100.00;95755.28;5038582;28;20201;-69
2023/04/23 06:14:32;;;;;;;1.60;1.20;;;;;;;12.95;100.00;95757.91;5038064;28;20622;-69
2023/04/23 06:16:59;;;;;;;2.33;0.93;;;;;;;12.76;100.00;95757.88;5038619;28;20201;-69
2023/04/23 06:19:26;;;;;;;1.00;1.00;;;;;;;13.00;100.00;95756.28;5037743;28;20201;-69
2023/04/23 06:21:53;;;;;;;3.13;1.42;;;;;;;12.85;100.00;95760.13;5038218;28;20225;-69
2023/04/23 06:24:20;;;;;;;1.40;0.93;;;;;;;13.09;100.00;95746.34;5038101;28;20228;-69
2023/04/23 06:26:46;;;;;;;1.13;1.05;;;;;;;13.21;100.00;95757.91;5038474;28;20747;-69
2023/04/23 06:29:13;;;;;;;0.70;0.70;;;;;;;13.29;100.00;95755.06;5037785;28;20296;-69
2023/04/23 06:31:41;;;;;;;5.25;1.52;;;;;;;13.27;100.00;95757.09;5037839;28;20208;-68
2023/04/23 06:34:07;;;;;;;1.73;1.58;;;;;;;13.42;100.00;95753.22;5037686;28;20224;-69
2023/04/23 06:36:34;;;;;;;3.83;1.73;;;;;;;13.35;100.00;95759.53;5038385;28;20212;-69
2023/04/23 06:39:00;;;;;;;2.55;0.75;;;;;;;13.40;100.00;95757.88;5037072;28;20205;-69
2023/04/23 06:41:27;;;;;;;1.63;1.52;;;;;;;13.48;100.00;95758.50;5037847;28;20221;-69
2023/04/23 06:43:53;;;;;;;0.82;0.68;;;;;;;13.50;100.00;95753.84;5037939;28;20228;-69
2023/04/23 06:46:20;;;;;;;2.85;1.30;;;;;;;13.41;100.00;95760.34;5037253;28;20225;-69
2023/04/23 06:48:48;;;;;;;1.42;1.33;;;;;;;13.31;100.00;95755.69;5037057;28;20577;-69
2023/04/23 06:51:15;;;;;;;1.58;1.48;;;;;;;13.49;100.00;95752.19;5038339;28;20201;-69
2023/04/23 06:53:41;;;;;;;0.82;0.73;;;;;;;13.53;100.00;95758.69;5036934;28;20225;-69
2023/04/23 06:56:08;;;;;;;1.40;0.85;;;;;;;13.76;100.00;95740.53;5036998;28;20220;-69
2023/04/23 06:58:34;;;;;;;1.88;1.58;;;;;;;13.63;100.00;95745.84;5037989;28;20208;-69
2023/04/23 07:01:03;;;;;;;0.90;0.90;;;;;;;13.81;100.00;95740.72;5037364;28;20241;-69
2023/04/23 07:03:29;;;;;;;1.60;0.93;;;;;;;13.85;100.00;95741.94;5036566;28;20481;-69
2023/04/23 07:05:57;;;;;;;0.90;0.90;;;;;;;13.98;100.00;95741.06;5037536;28;20197;-69
2023/04/23 07:08:24;;;;;;;0.50;0.50;;;;;;;13.76;100.00;95743.19;5037225;28;20300;-69
2023/04/23 07:10:52;;;;;;;1.52;1.40;;;;;;;13.91;100.00;95738.41;5036946;28;20247;-69
2023/04/23 07:13:18;;;;;;;1.65;1.52;;;;;;;14.02;100.00;95737.78;5035690;28;20282;-69
2023/04/23 07:15:45;;;;;;;1.90;0.90;;;;;;;13.98;100.00;95730.47;5037004;28;20202;-69
2023/04/23 07:18:12;;;;;;;1.77;1.13;;;;;;;13.88;100.00;95736.19;5035694;28;20290;-69
2023/04/23 07:20:38;;;;;;;1.52;1.10;;;;;;;13.67;100.00;95731.19;5035232;28;20225;-70
2023/04/23 07:23:06;;;;;;;2.58;1.60;;;;;;;14.04;100.00;95730.44;5036930;28;20717;-69
2023/04/23 07:25:33;;;;;;;1.40;0.80;;;;;;;14.17;100.00;95730.41;5036959;28;20201;-69
2023/04/23 07:27:59;;;;;;;3.13;1.80;;;;;;;14.19;100.00;95723.88;5036122;28;20224;-69
2023/04/23 07:30:26;;;;;;;2.53;1.50;;;;;;;14.06;100.00;95731.88;5037125;28;20205;-69
2023/04/23 07:32:54;;;;;;;1.25;0.93;;;;;;;14.24;100.00;95721.41;5036918;28;20599;-69
2023/04/23 07:35:20;;;;;;;1.17;1.10;;;;;;;14.27;100.00;95728.94;5036626;28;20209;-69
2023/04/23 07:37:52;;;;;;;4.05;1.05;;;;;;;14.30;100.00;95717.09;5036446;28;20235;-69
2023/04/23 07:40:20;;;;;;;2.03;0.75;;;;;;;14.40;100.00;95712.16;5036148;28;20295;-69
2023/04/23 07:42:48;;;;;;;1.95;1.25;;;;;;;14.39;100.00;95713.19;5036527;28;20216;-69
2023/04/23 07:45:14;;;;;;;0.65;0.65;;;;;;;14.56;100.00;95711.63;5036459;28;20577;-69
2023/04/23 07:47:41;;;;;;;0.85;0.70;;;;;;;14.28;100.00;95711.19;5036246;28;20197;-69
2023/04/23 07:50:08;;;;;;;1.27;1.17;;;;;;;14.47;100.00;95710.25;5036479;28;20209;-69
2023/04/23 07:52:35;;;;;;;1.02;0.93;;;;;;;14.34;100.00;95716.44;5036740;28;20221;-69
2023/04/23 07:55:02;;;;;;;1.17;0.85;;;;;;;14.27;100.00;95713.03;5036729;28;20221;-69
2023/04/23 07:57:30;;;;;;;1.02;0.90;;;;;;;14.39;100.00;95705.22;5036152;28;20208;-69
2023/04/23 07:59:56;;;;;;;1.02;0.82;;;;;;;14.50;100.00;95715.97;5036258;28;20212;-69
2023/04/23 08:02:25;;;;;;;0.70;0.70;;;;;;;14.62;100.00;95706.28;5036581;28;20232;-70
2023/04/23 08:04:52;;;;;;;0.47;0.47;;;;;;;14.78;100.00;95698.63;5036229;28;20227;-70
2023/04/23 08:07:18;;;;;;;0.88;0.80;;;;;;;14.83;100.00;95703.31;5036102;28;20201;-69
2023/04/23 08:09:45;;;;;;;0.80;0.80;;;;;;;15.03;100.00;95706.59;5037136;28;20197;-70
2023/04/23 08:12:11;;;;;;;0.85;0.80;;;;;;;14.87;100.00;95697.34;5036439;28;20201;-70
2023/04/23 08:14:39;;;;;;;0.60;0.60;;;;;;;15.06;100.00;95696.38;5036579;28;20221;-70
2023/04/23 08:17:06;;;;;;;1.00;0.55;;;;;;;15.35;100.00;95693.06;5035650;28;20201;-70
2023/04/23 08:19:32;;;;;;;0.70;0.70;;;;;;;15.41;100.00;95689.53;5036386;28;20205;-70
2023/04/23 08:21:59;;;;;;;0.68;0.52;;;;;;;15.41;100.00;95690.38;5035315;28;20225;-69
2023/04/23 08:24:25;;;;;;;0.93;0.75;;;;;;;15.14;97.25;95690.78;5036469;28;20213;-70
2023/04/23 08:26:52;;;;;;;0.50;0.50;;;;;;;15.22;97.91;95684.41;5040287;28;20205;-70
2023/04/23 08:29:18;;;;;;;5.88;1.17;;;;;;;15.04;95.43;95685.16;5039769;28;20220;-69
2023/04/23 08:31:46;;;;;;;1.15;0.45;;;;;;;15.28;95.82;95685.16;5040228;28;20673;-71
2023/04/23 08:34:13;;;;;;;0.75;0.75;;;;;;;15.23;96.74;95692.16;5040240;28;20237;-70
2023/04/23 08:36:40;;;;;;;0.35;0.35;;;;;;;15.19;96.93;95693.59;5040418;28;21142;-70
2023/04/23 08:39:06;;;;;;;0.55;0.55;;;;;;;15.32;94.75;95683.72;5039463;28;20217;-70
2023/04/23 08:41:38;;;;;;;1.80;0.85;;;;;;;15.38;95.32;95685.47;5039854;28;20617;-70
2023/04/23 08:44:13;;;;;;;1.55;1.45;;;;;;;15.87;96.13;95682.69;5039697;28;20266;-70
2023/04/23 08:46:42;;;;;;;0.95;0.52;;;;;;;15.55;91.70;95686.50;5039890;28;20204;-70
2023/04/23 08:49:15;;;;;;;0.60;0.60;;;;;;;15.81;91.89;95685.41;5038415;28;20591;-69
2023/04/23 08:51:46;;;;;;;0.47;0.47;;;;;;;16.05;92.76;95677.34;5039208;28;20197;-70
2023/04/23 08:54:26;;;;;;;1.90;1.00;;;;;;;16.33;87.68;95674.97;5039955;28;20235;-69
2023/04/23 08:56:56;;;;;;;0.50;0.50;;;;;;;16.42;85.49;95677.09;5040247;28;20201;-71
2023/04/23 08:59:22;;;;;;;0.95;0.50;;;;;;;16.00;86.14;95674.56;5039260;28;20727;-70
2023/04/23 09:01:49;;;;;;;0.28;0.28;;;;;;;16.09;84.51;95682.00;5039683;28;20261;-70
2023/04/23 09:04:19;;;;;;;0.47;0.47;;;;;;;16.04;82.16;95676.53;5039427;28;20235;-70
2023/04/23 09:06:45;;;;;;;0.20;0.20;;;;;;;16.08;84.07;95672.41;5039781;28;20976;-69
2023/04/23 09:09:15;;;;;;;0.55;0.40;;;;;;;16.25;84.64;95667.28;5039499;28;20209;-70
2023/04/23 09:11:42;;;;;;;1.95;0.70;;;;;;;15.92;83.90;95677.50;5039655;28;20955;-70
2023/04/23 09:14:09;;;;;;;0.40;0.40;;;;;;;16.01;84.05;95669.03;5038760;28;20758;-70
2023/04/23 09:16:36;;;;;;;0.40;0.40;;;;;;;16.57;80.91;95661.50;5039532;28;20211;-69
2023/04/23 09:19:02;;;;;;;0.40;0.40;;;;;;;16.66;79.22;95666.28;5038905;28;20216;-69
2023/04/23 09:21:30;;;;;;;0.20;0.20;;;;;;;16.55;80.27;95658.28;5039178;28;20221;-70
2023/04/23 09:23:56;;;;;;;0.50;0.50;;;;;;;16.25;81.47;95661.97;5039224;28;20221;-69
2023/04/23 09:26:23;;;;;;;0.35;0.35;;;;;;;16.14;82.46;95660.03;5038524;28;20603;-68
2023/04/23 09:28:51;;;;;;;0.50;0.50;;;;;;;15.67;84.62;95658.19;5039329;28;20209;-70
2023/04/23 09:31:20;;;;;;;0.30;0.30;;;;;;;16.24;85.34;95647.88;5038314;28;20684;-69
2023/04/23 09:33:51;;;;;;;1.58;0.65;;;;;;;16.40;84.36;95655.22;5038975;28;20217;-69
2023/04/23 09:36:21;;;;;;;1.42;0.60;;;;;;;16.69;84.78;95649.88;5037736;28;20209;-69
2023/04/23 09:38:49;;;;;;;0.80;0.80;;;;;;;16.85;79.33;95643.06;5037868;28;20205;-69
2023/04/23 09:41:26;;;;;;;0.43;0.35;;;;;;;16.81;77.48;95647.22;5038156;28;20221;-69
2023/04/23 09:43:53;;;;;;;0.40;0.40;;;;;;;16.82;78.03;95643.53;5038908;28;20221;-69
2023/04/23 09:46:33;;;;;;;0.60;0.60;;;;;;;17.24;79.03;95644.03;5038840;28;20205;-69
2023/04/23 09:49:01;;;;;;;0.90;0.40;;;;;;;17.50;77.09;95638.25;5038209;28;20262;-70
2023/04/23 09:51:29;;;;;;;0.20;0.20;;;;;;;17.94;76.43;95622.38;5038713;28;20578;-69
2023/04/23 09:53:57;;;;;;;0.30;0.30;;;;;;;17.87;72.94;95628.88;5039082;28;20316;-69
2023/04/23 09:56:24;;;;;;;2.15;0.50;;;;;;;17.83;73.70;95622.41;5038672;28;20201;-69
2023/04/23 09:58:51;;;;;;;0.40;0.40;;;;;;;17.31;73.80;95627.94;5037880;28;20201;-71
2023/04/23 10:01:17;;;;;;;1.00;0.60;;;;;;;16.74;76.75;95622.59;5038239;28;20229;-71
2023/04/23 10:03:44;;;;;;;0.45;0.45;;;;;;;16.95;77.22;95622.03;5038686;28;20237;-71
2023/04/23 10:06:13;;;;;;;0.40;0.40;;;;;;;16.95;77.43;95619.38;5038472;28;20216;-70
2023/04/23 10:08:40;;;;;;;0.57;0.57;;;;;;;17.11;75.66;95616.81;5038486;28;20288;-70
2023/04/23 10:11:09;;;;;;;0.40;0.40;;;;;;;17.18;73.38;95612.19;5038099;28;20586;-70
2023/04/23 10:13:36;;;;;;;1.35;0.70;;;;;;;17.55;70.92;95613.56;5038034;28;20225;-70
2023/04/23 10:16:05;;;;;;;3.50;0.35;;;;;;;18.06;71.06;95615.19;5038541;28;20205;-71
2023/04/23 10:18:33;;;;;;;0.90;0.50;;;;;;;17.97;67.88;95615.78;5036720;28;20208;-70
2023/04/23 10:21:02;;;;;;;0.40;0.32;;;;;;;18.15;67.75;95607.59;5037809;28;20204;-71
2023/04/23 10:23:29;;;;;;;0.20;0.20;;;;;;;17.73;69.47;95606.22;5038034;28;20243;-70
2023/04/23 10:25:58;;;;;;;2.58;0.95;;;;;;;17.82;69.13;95607.50;5038191;28;21288;-69
2023/04/23 10:28:30;;;;;;;0.20;0.20;;;;;;;18.05;70.76;95607.38;5037602;28;20202;-71
2023/04/23 10:30:58;;;;;;;0.47;0.47;;;;;;;17.97;72.84;95605.09;5037851;28;20296;-69
2023/04/23 10:33:26;;;;;;;0.20;0.20;;;;;;;18.17;72.19;95600.19;5038015;28;21398;-70
2023/04/23 10:35:54;;;;;;;0.30;0.30;;;;;;;18.22;72.30;95589.63;5037952;28;20201;-70
2023/04/23 10:38:22;;;;;;;0.73;0.50;;;;;;;17.66;67.88;95600.22;5037392;28;20209;-69
2023/04/23 10:40:51;;;;;;;0.57;0.40;;;;;;;17.86;69.61;95595.31;5038013;28;20208;-70
2023/04/23 10:43:19;;;;;;;0.40;0.40;;;;;;;17.67;68.52;95595.69;5037285;28;20232;-70
2023/04/23 10:45:47;;;;;;;0.45;0.45;;;;;;;17.62;69.53;95592.94;5038067;28;20208;-70
2023/04/23 10:48:14;;;;;;;0.20;0.20;;;;;;;17.84;70.32;95592.06;5036770;28;20256;-70
2023/04/23 10:50:43;;;;;;;0.60;0.60;;;;;;;18.18;70.30;95575.16;5037416;28;20203;-70
2023/04/23 10:53:19;;;;;;;0.30;0.30;;;;;;;18.95;71.36;95576.75;5037515;28;20225;-71
2023/04/23 10:55:47;;;;;;;0.20;0.20;;;;;;;18.74;70.63;95574.00;5037784;28;20203;-70
2023/04/23 10:58:13;;;;;;;0.30;0.30;;;;;;;19.19;69.62;95572.03;5036684;28;20665;-70
2023/04/23 11:00:45;;;;;;;0.32;0.30;;;;;;;19.66;63.73;95574.81;5037303;28;20208;-71
2023/04/23 11:03:31;;;;;;;0.35;0.30;;;;;;;19.30;63.33;95571.94;5036929;28;20239;-70
2023/04/23 11:06:00;;;;;;;0.28;0.28;;;;;;;19.37;65.10;95569.88;5037749;28;20205;-70
2023/04/23 11:08:30;;;;;;;0.43;0.43;;;;;;;19.16;67.52;95572.56;5036793;28;20206;-69
2023/04/23 11:10:58;;;;;;;0.65;0.35;;;;;;;19.72;67.92;95551.66;5036956;28;20197;-71
2023/04/23 11:13:25;;;;;;;0.20;0.20;;;;;;;19.93;63.39;95557.00;5037181;28;20225;-69
2023/04/23 11:16:13;;;;;;;0.55;0.55;;;;;;;20.21;63.55;95548.75;5037312;28;20201;-71
2023/04/23 11:18:56;;;;;;;0.20;0.20;;;;;;;19.74;59.81;95549.53;5035932;28;20205;-70
2023/04/23 11:21:43;;;;;;;0.28;0.28;;;;;;;19.62;61.91;95538.16;5037960;28;20216;-71
2023/04/23 11:24:10;;;;;;;0.20;0.20;;;;;;;19.65;64.19;95534.97;5036415;28;20221;-70
2023/04/23 11:26:38;;;;;;;0.20;0.20;;;;;;;19.16;64.29;95540.50;5036552;28;20208;-71
2023/04/23 11:29:07;;;;;;;0.20;0.20;;;;;;;19.15;65.09;95534.31;5036442;28;20208;-69